首页
METAR-TAF:

METAR-TAF

机场 :

顿河畔罗斯托夫, 俄罗斯

纬度: 47-29-38N, 经度: 039-55-29E, 海拔: 65米

当前天气观测

该预报发布于24分钟前的08:30 UTC
风速10节,风向东转东南,在东北南转南东之间变化
温度 11°C
湿度 25%
气压 1016 hPa
能见度10公里或以上
1500米以下无云,无积雨云

METAR: URRP 030830Z 11005MPS 050V150 CAVOK 11/M08 Q1016 R05/CLRD70 TEMPO 15006G12MPS RMK QFE757/1010

时间: 12:54 (08:54 UTC)

预报

该预报发布于56分钟前的07:58 UTC
预报有效从03日的 09点(UTC)到 04日的 09点(UTC)
风速6节,风向,有时为16节阵风
能见度10公里或以上
散云层高于3000英尺
短暂存在
从 03日的 09点(UTC)到 03日的 21点(UTC)
风速6节,风向东南,有时为19节阵风
短暂存在
从 03日的 21点(UTC)到 04日的 09点(UTC)
风速6节,风向西南,有时为16节阵风
能見度: 6000
散云层高于1600英尺

TAF: URRP 030758Z 0309/0409 10003G08MPS 9999 SCT030 TEMPO 0309/0321 14003G10MPS TEMPO 0321/0409 22003G08MPS 6000 SCT016

超过4000个机场的气象观测和天气预报(METAR&TAF报告)。

可查询的气象台以黄色和红色小点在地图上表示。

将鼠标移到小点上方,可查看气象台名称。

然后点击查看天气观测和预报。

如需切换地图:点击带黑十字的绿色按钮放大地图;点击带横线的绿色按钮缩小地图;或者点击绿色箭头查看邻近地区的地图。


METAR-TAF: